Главная страница
METAR-TAF:

METAR-TAF

Аэропорты :

Витмунд, Германия

широта: 53-33N, долгота: 007-40E, высота над уровнем моря: 8 м

Текущие метеонаблюдения

Эта сводка был подготовлена 28 минут назад, в 23:20 UTC
Ветер 7 Узел от восточный
Температура 1°C
Влажность 80%
Давление 1036 hPa
Видимость: 6000 м

METAR: ETNT 172320Z AUTO 10007KT 6000 // ////// 01/M02 Q1036 ///

Время: 00:48 (23:48 UTC)


TAF: отсутствует

Метеонаблюдения и прогнозы для более 4000 аэропортов (сводки METAR и TAF).

Имеющиеся станции представлены на карте желтыми и красными точками.

Чтобы увидеть название станции, наведите на нее мышь.

Затем щелкните, чтобы увидеть метеонаблюдения и метеопрогнозы.

Управление картой: чтобы увеличить масштаб, щелкните зеленые кнопки с черным крестиком; чтобы уменьшить масштаб, щелкните зеленую кнопку с тире; для просмотра соседних карт щелкайте зеленые стрелки.


METAR-TAF: